Time;durP1;ratioP1;P1;durP2;ratioP2;P2;SDS_P1;SDS_P2;PMS_P1;PMS_P2;Temp;Humidity;BMP_temperature;BMP_pressure;BME280_temperature;BME280_humidity;BME280_pressure;Samples;Min_cycle;Max_cycle;Signal;HPM_P1;HPM_P2
2022/02/15 00:01:58;;;;;;;88.57;50.27;;;;;;;;;;4329301;33;20235;-55
2022/02/15 00:04:23;;;;;;;87.43;49.17;;;;;;;;;;4334176;33;20382;-56
2022/02/15 00:06:49;;;;;;;97.13;46.77;;;;;;;;;;4340514;33;20301;-56
2022/02/15 00:09:14;;;;;;;95.13;48.73;;;;;;;;;;4391292;32;20368;-56
2022/02/15 00:11:40;;;;;;;115.17;61.20;;;;;;;;;;4391078;32;20250;-56
2022/02/15 00:14:07;;;;;;;93.93;50.87;;;;;;;;;;4340355;33;20219;-56
2022/02/15 00:16:33;;;;;;;57.93;30.97;;;;;;;;;;4340047;33;20338;-57
2022/02/15 00:18:58;;;;;;;62.13;31.53;;;;;;;;;;4340188;33;20304;-58
2022/02/15 00:21:24;;;;;;;61.43;30.67;;;;;;;;;;4339598;32;20365;-55
2022/02/15 00:23:49;;;;;;;84.83;40.37;;;;;;;;;;4340471;32;20717;-55
2022/02/15 00:26:15;;;;;;;63.97;34.27;;;;;;;;;;4340149;33;20587;-56
2022/02/15 00:28:40;;;;;;;77.17;33.73;;;;;;;;;;4390935;32;20702;-56
2022/02/15 00:31:06;;;;;;;66.20;33.33;;;;;;;;;;4390850;32;20404;-55
2022/02/15 00:33:31;;;;;;;68.03;33.13;;;;;;;;;;4339859;33;20422;-55
2022/02/15 00:35:57;;;;;;;66.53;32.20;;;;;;;;;;4340043;33;20285;-55
2022/02/15 00:38:24;;;;;;;64.17;33.20;;;;;;;;;;4340077;33;20551;-56
2022/02/15 00:40:49;;;;;;;64.40;34.73;;;;;;;;;;4340085;33;20214;-57
2022/02/15 00:43:15;;;;;;;61.93;36.90;;;;;;;;;;4339923;33;20307;-56
2022/02/15 00:45:40;;;;;;;60.60;32.57;;;;;;;;;;4339844;33;20317;-57
2022/02/15 00:48:06;;;;;;;72.60;36.67;;;;;;;;;;4339515;32;20253;-55
2022/02/15 00:50:32;;;;;;;69.40;36.10;;;;;;;;;;4390393;32;20413;-56
2022/02/15 00:52:57;;;;;;;78.20;41.40;;;;;;;;;;4389780;32;20388;-56
2022/02/15 00:55:23;;;;;;;76.03;41.10;;;;;;;;;;4390799;32;20352;-55
2022/02/15 00:57:48;;;;;;;71.13;35.57;;;;;;;;;;4339652;33;20226;-56
2022/02/15 01:00:14;;;;;;;77.83;37.43;;;;;;;;;;4337816;33;20293;-56
2022/02/15 01:02:40;;;;;;;94.33;47.03;;;;;;;;;;4324609;33;20223;-55
2022/02/15 01:05:06;;;;;;;79.37;43.77;;;;;;;;;;4337474;33;20360;-56
2022/02/15 01:07:32;;;;;;;81.50;41.83;;;;;;;;;;4390544;32;20273;-56
2022/02/15 01:09:58;;;;;;;97.57;48.03;;;;;;;;;;4339981;33;20285;-57
2022/02/15 01:12:24;;;;;;;104.30;49.77;;;;;;;;;;4369401;32;20322;-55
2022/02/15 01:14:50;;;;;;;89.53;42.27;;;;;;;;;;4330514;33;20223;-56
2022/02/15 01:17:15;;;;;;;98.27;44.23;;;;;;;;;;4369294;32;20255;-55
2022/02/15 01:19:41;;;;;;;91.20;43.50;;;;;;;;;;4324989;33;20306;-56
2022/02/15 01:22:06;;;;;;;99.10;45.50;;;;;;;;;;4327075;33;20284;-56
2022/02/15 01:24:32;;;;;;;81.93;42.93;;;;;;;;;;4339733;33;20362;-56
2022/02/15 01:26:58;;;;;;;89.43;43.23;;;;;;;;;;4389932;32;20234;-56
2022/02/15 01:29:23;;;;;;;90.43;42.43;;;;;;;;;;4339810;33;20321;-57
2022/02/15 01:31:49;;;;;;;90.73;45.27;;;;;;;;;;4339265;33;20346;-55
2022/02/15 01:34:15;;;;;;;102.27;45.33;;;;;;;;;;4389703;32;20392;-56
2022/02/15 01:36:41;;;;;;;127.80;61.70;;;;;;;;;;4339511;33;20329;-56
2022/02/15 01:39:06;;;;;;;142.40;70.17;;;;;;;;;;4339459;32;20832;-56
2022/02/15 01:41:32;;;;;;;150.37;71.33;;;;;;;;;;4339557;33;20353;-56
2022/02/15 01:43:57;;;;;;;153.10;75.23;;;;;;;;;;4339335;33;20308;-56
2022/02/15 01:46:23;;;;;;;163.13;74.20;;;;;;;;;;4339262;32;20328;-56
2022/02/15 01:48:48;;;;;;;147.27;72.03;;;;;;;;;;4336572;33;20348;-55
2022/02/15 01:51:15;;;;;;;134.23;68.17;;;;;;;;;;4338860;32;20295;-56
2022/02/15 01:53:40;;;;;;;138.37;64.80;;;;;;;;;;4339246;32;20236;-57
2022/02/15 01:56:09;;;;;;;123.40;59.47;;;;;;;;;;4338984;33;20294;-55
2022/02/15 01:58:34;;;;;;;81.07;46.40;;;;;;;;;;4389691;32;20227;-55
2022/02/15 02:01:00;;;;;;;86.20;42.37;;;;;;;;;;4389402;32;20348;-55
2022/02/15 02:03:26;;;;;;;73.50;38.10;;;;;;;;;;4339045;33;20282;-55
2022/02/15 02:05:51;;;;;;;69.67;34.17;;;;;;;;;;4339297;32;20308;-56
2022/02/15 02:08:19;;;;;;;77.40;36.07;;;;;;;;;;4338951;33;20275;-54
2022/02/15 02:10:45;;;;;;;68.93;34.13;;;;;;;;;;4389369;32;20235;-54
2022/02/15 02:13:11;;;;;;;67.97;34.60;;;;;;;;;;4339457;32;20635;-54
2022/02/15 02:15:37;;;;;;;56.00;30.07;;;;;;;;;;4329508;33;20286;-56
2022/02/15 02:18:03;;;;;;;64.40;31.50;;;;;;;;;;4324069;33;20431;-54
2022/02/15 02:20:29;;;;;;;61.67;31.27;;;;;;;;;;4324500;33;20287;-54
2022/02/15 02:22:54;;;;;;;70.73;31.80;;;;;;;;;;4324395;32;20647;-54
2022/02/15 02:25:21;;;;;;;52.47;28.03;;;;;;;;;;4324264;33;20274;-55
2022/02/15 02:27:47;;;;;;;52.27;29.57;;;;;;;;;;4324055;33;20260;-54
2022/02/15 02:30:13;;;;;;;50.10;27.73;;;;;;;;;;4324187;33;20379;-54
2022/02/15 02:32:39;;;;;;;54.83;27.47;;;;;;;;;;4324486;33;20227;-55
2022/02/15 02:35:06;;;;;;;62.83;27.60;;;;;;;;;;4324570;33;20308;-55
2022/02/15 02:37:32;;;;;;;51.07;26.73;;;;;;;;;;4311084;33;20600;-55
2022/02/15 02:40:00;;;;;;;60.67;28.50;;;;;;;;;;4324440;33;20208;-55
2022/02/15 02:42:27;;;;;;;58.97;27.20;;;;;;;;;;4324229;33;20621;-54
2022/02/15 02:44:56;;;;;;;51.63;26.63;;;;;;;;;;4326652;33;20215;-54
2022/02/15 02:47:21;;;;;;;54.67;28.53;;;;;;;;;;4323342;32;20223;-54
2022/02/15 02:49:47;;;;;;;46.87;27.60;;;;;;;;;;4312350;33;20721;-56
2022/02/15 02:52:12;;;;;;;57.63;29.03;;;;;;;;;;4312861;32;20421;-56
2022/02/15 02:54:40;;;;;;;55.87;29.83;;;;;;;;;;4326829;33;20677;-55
2022/02/15 02:57:06;;;;;;;57.80;30.60;;;;;;;;;;4326459;33;20620;-55
2022/02/15 02:59:33;;;;;;;67.20;31.57;;;;;;;;;;4326600;33;20293;-55
2022/02/15 03:01:59;;;;;;;45.93;25.73;;;;;;;;;;4315722;33;20293;-54
2022/02/15 03:04:24;;;;;;;43.40;23.97;;;;;;;;;;4323251;32;20289;-55
2022/02/15 03:06:50;;;;;;;45.53;25.20;;;;;;;;;;4341303;33;20218;-53
2022/02/15 03:09:15;;;;;;;51.23;26.73;;;;;;;;;;4341247;33;20298;-57
2022/02/15 03:11:41;;;;;;;44.37;24.57;;;;;;;;;;4337979;32;20650;-56
2022/02/15 03:14:07;;;;;;;43.83;24.20;;;;;;;;;;4403815;32;20324;-55
2022/02/15 03:16:33;;;;;;;48.17;25.83;;;;;;;;;;4387596;32;20328;-57
2022/02/15 03:18:58;;;;;;;47.57;27.03;;;;;;;;;;4402778;32;20364;-56
2022/02/15 03:21:24;;;;;;;53.57;27.27;;;;;;;;;;4403660;32;20287;-55
2022/02/15 03:23:50;;;;;;;45.50;26.90;;;;;;;;;;4403466;32;20661;-55
2022/02/15 03:26:16;;;;;;;57.90;28.20;;;;;;;;;;4403218;32;20297;-56
2022/02/15 03:28:41;;;;;;;51.17;27.40;;;;;;;;;;4403803;32;20273;-56
2022/02/15 03:31:07;;;;;;;50.10;28.17;;;;;;;;;;4403257;32;20272;-57
2022/02/15 03:33:34;;;;;;;61.37;26.87;;;;;;;;;;4403376;32;20692;-57
2022/02/15 03:36:00;;;;;;;51.30;26.47;;;;;;;;;;4401999;32;20705;-55
2022/02/15 03:38:26;;;;;;;50.60;27.97;;;;;;;;;;4403522;32;20581;-56
2022/02/15 03:43:36;;;;;;;49.57;26.23;;;;;;;;;;4403040;32;20279;-56
2022/02/15 03:46:01;;;;;;;47.17;24.27;;;;;;;;;;4391180;32;20311;-56
2022/02/15 03:48:27;;;;;;;51.33;26.13;;;;;;;;;;4398886;32;20304;-56
2022/02/15 03:50:52;;;;;;;49.77;25.80;;;;;;;;;;4402121;32;20304;-56
2022/02/15 03:53:18;;;;;;;43.73;22.87;;;;;;;;;;4403453;32;20593;-56
2022/02/15 03:55:44;;;;;;;47.50;24.73;;;;;;;;;;4402938;32;20358;-56
2022/02/15 03:58:10;;;;;;;48.30;26.07;;;;;;;;;;4402734;32;20292;-56
2022/02/15 04:00:36;;;;;;;51.87;27.73;;;;;;;;;;4403208;32;20470;-56
2022/02/15 04:03:02;;;;;;;58.37;29.33;;;;;;;;;;4402617;32;20257;-56
2022/02/15 04:05:27;;;;;;;74.77;38.13;;;;;;;;;;4403203;32;20616;-56
2022/02/15 04:07:53;;;;;;;86.63;42.23;;;;;;;;;;4401798;32;20367;-56
2022/02/15 04:10:19;;;;;;;83.63;44.30;;;;;;;;;;4403112;32;20296;-55
2022/02/15 04:12:46;;;;;;;88.80;46.47;;;;;;;;;;4365002;32;20659;-56
2022/02/15 04:15:12;;;;;;;89.70;44.57;;;;;;;;;;4389972;32;20315;-55
2022/02/15 04:17:38;;;;;;;86.23;43.70;;;;;;;;;;4340117;32;20257;-55
2022/02/15 04:20:04;;;;;;;95.80;48.77;;;;;;;;;;4340520;32;20305;-57
2022/02/15 04:22:29;;;;;;;94.20;45.60;;;;;;;;;;4340491;33;20265;-55
2022/02/15 04:24:55;;;;;;;109.30;52.13;;;;;;;;;;4391110;32;20380;-56
2022/02/15 04:27:20;;;;;;;99.87;54.13;;;;;;;;;;4340953;33;20219;-54
2022/02/15 04:29:46;;;;;;;118.97;56.47;;;;;;;;;;4340489;33;20337;-55
2022/02/15 04:32:11;;;;;;;115.47;56.50;;;;;;;;;;4340241;33;20330;-54
2022/02/15 04:34:39;;;;;;;99.13;54.63;;;;;;;;;;4340337;33;20336;-56
2022/02/15 04:37:04;;;;;;;100.43;51.40;;;;;;;;;;4340268;33;20273;-54
2022/02/15 04:39:30;;;;;;;99.23;51.30;;;;;;;;;;4339828;32;20286;-54
2022/02/15 04:41:55;;;;;;;104.57;50.00;;;;;;;;;;4340208;33;20257;-54
2022/02/15 04:44:21;;;;;;;99.53;47.83;;;;;;;;;;4340293;33;20304;-59
2022/02/15 04:46:46;;;;;;;107.13;48.73;;;;;;;;;;4339611;33;20698;-55
2022/02/15 04:49:12;;;;;;;101.07;47.07;;;;;;;;;;4389572;32;20726;-54
2022/02/15 04:51:37;;;;;;;109.90;51.53;;;;;;;;;;4340343;32;20687;-55
2022/02/15 04:54:03;;;;;;;99.10;52.50;;;;;;;;;;4340141;32;20289;-55
2022/02/15 04:56:28;;;;;;;113.13;54.33;;;;;;;;;;4387394;32;20253;-54
2022/02/15 04:58:54;;;;;;;114.97;55.37;;;;;;;;;;4340290;33;20308;-54
2022/02/15 05:01:21;;;;;;;103.10;53.20;;;;;;;;;;4333195;33;20295;-54
2022/02/15 05:03:46;;;;;;;109.00;54.03;;;;;;;;;;4330197;33;20249;-55
2022/02/15 05:06:12;;;;;;;113.93;54.90;;;;;;;;;;4339626;33;20235;-55
2022/02/15 05:08:37;;;;;;;97.67;48.43;;;;;;;;;;4339953;33;20398;-55
2022/02/15 05:11:03;;;;;;;92.33;48.97;;;;;;;;;;4340052;33;20338;-55
2022/02/15 05:13:28;;;;;;;95.90;47.23;;;;;;;;;;4334785;33;20250;-54
2022/02/15 05:15:54;;;;;;;98.33;50.17;;;;;;;;;;4347645;32;20315;-55
2022/02/15 05:18:19;;;;;;;117.00;55.43;;;;;;;;;;4333110;33;20261;-55
2022/02/15 05:20:44;;;;;;;109.93;54.07;;;;;;;;;;4339995;33;20282;-55
2022/02/15 05:23:10;;;;;;;104.40;51.93;;;;;;;;;;4339575;32;20325;-55
2022/02/15 05:25:35;;;;;;;104.37;50.23;;;;;;;;;;4390290;32;20415;-55
2022/02/15 05:28:01;;;;;;;108.40;59.93;;;;;;;;;;4339714;33;20618;-55
2022/02/15 05:30:28;;;;;;;100.33;51.70;;;;;;;;;;4339975;33;20297;-56
2022/02/15 05:32:54;;;;;;;95.37;52.83;;;;;;;;;;4339329;33;20305;-55
2022/02/15 05:35:19;;;;;;;106.23;53.37;;;;;;;;;;4339300;33;20662;-54
2022/02/15 05:37:45;;;;;;;113.50;60.37;;;;;;;;;;4339620;32;20326;-53
2022/02/15 05:40:12;;;;;;;104.53;56.07;;;;;;;;;;4339592;33;20297;-55
2022/02/15 05:42:39;;;;;;;100.80;54.97;;;;;;;;;;4339639;33;20252;-54
2022/02/15 05:45:05;;;;;;;110.50;55.83;;;;;;;;;;4339402;32;20525;-53
2022/02/15 05:47:31;;;;;;;104.57;59.43;;;;;;;;;;4383487;32;20601;-54
2022/02/15 05:52:41;;;;;;;158.67;84.33;;;;;;;;;;4322576;33;20371;-56
2022/02/15 05:55:07;;;;;;;130.00;70.37;;;;;;;;;;4336318;32;20293;-59
2022/02/15 05:57:33;;;;;;;120.83;66.73;;;;;;;;;;4335889;33;20612;-57
2022/02/15 05:59:59;;;;;;;114.03;63.43;;;;;;;;;;4336252;33;20313;-56
2022/02/15 06:02:24;;;;;;;120.73;65.33;;;;;;;;;;4335619;33;20315;-57
2022/02/15 06:04:50;;;;;;;126.33;65.10;;;;;;;;;;4338041;33;20347;-56
2022/02/15 06:07:16;;;;;;;135.80;66.27;;;;;;;;;;4389456;32;20246;-55
2022/02/15 06:09:41;;;;;;;158.27;68.47;;;;;;;;;;4339493;32;20321;-56
2022/02/15 06:12:07;;;;;;;147.47;70.53;;;;;;;;;;4388957;32;20238;-56
2022/02/15 06:14:33;;;;;;;156.63;82.57;;;;;;;;;;4338913;33;20270;-55
2022/02/15 06:16:58;;;;;;;128.70;70.27;;;;;;;;;;4338537;33;20298;-56
2022/02/15 06:19:24;;;;;;;146.80;72.30;;;;;;;;;;4338883;33;20290;-56
2022/02/15 06:21:49;;;;;;;130.90;71.03;;;;;;;;;;4389192;32;20356;-56
2022/02/15 06:24:17;;;;;;;130.57;68.33;;;;;;;;;;4338835;32;20518;-57
2022/02/15 06:26:43;;;;;;;122.13;66.37;;;;;;;;;;4388950;32;20266;-56
2022/02/15 06:29:10;;;;;;;124.43;66.70;;;;;;;;;;4338844;33;20219;-57
2022/02/15 06:31:36;;;;;;;140.57;70.47;;;;;;;;;;4384254;32;20253;-56
2022/02/15 06:34:02;;;;;;;164.20;80.50;;;;;;;;;;4402060;32;20331;-57
2022/02/15 06:36:27;;;;;;;137.33;73.33;;;;;;;;;;4415817;32;20349;-55
2022/02/15 06:38:53;;;;;;;135.53;75.00;;;;;;;;;;4415865;32;20288;-56
2022/02/15 06:41:18;;;;;;;138.10;73.53;;;;;;;;;;4402305;32;20241;-56
2022/02/15 06:43:44;;;;;;;128.40;75.13;;;;;;;;;;4416093;32;20281;-56
2022/02/15 06:46:09;;;;;;;146.40;77.10;;;;;;;;;;4371906;32;20416;-56
2022/02/15 06:48:35;;;;;;;148.70;79.03;;;;;;;;;;4338303;32;20274;-56
2022/02/15 06:51:00;;;;;;;157.63;82.13;;;;;;;;;;4338735;32;20286;-56
2022/02/15 06:53:26;;;;;;;152.33;81.27;;;;;;;;;;4338643;33;20259;-56
2022/02/15 06:55:51;;;;;;;151.87;83.97;;;;;;;;;;4338828;33;20739;-56
2022/02/15 06:58:17;;;;;;;168.33;83.93;;;;;;;;;;4388862;32;20258;-56
2022/02/15 07:00:43;;;;;;;165.50;87.97;;;;;;;;;;4386667;32;20324;-56
2022/02/15 07:03:08;;;;;;;153.63;84.03;;;;;;;;;;4324185;33;20247;-56
2022/02/15 07:05:34;;;;;;;130.73;73.50;;;;;;;;;;4338993;33;20340;-56
2022/02/15 07:07:59;;;;;;;135.77;72.67;;;;;;;;;;4338670;32;20243;-54
2022/02/15 07:10:25;;;;;;;126.43;69.17;;;;;;;;;;4339059;32;20285;-54
2022/02/15 07:12:50;;;;;;;118.83;67.83;;;;;;;;;;4328279;32;20255;-54
2022/02/15 07:15:16;;;;;;;121.27;58.57;;;;;;;;;;4326235;33;20278;-54
2022/02/15 07:17:41;;;;;;;107.77;58.50;;;;;;;;;;4327894;32;20309;-55
2022/02/15 07:20:08;;;;;;;103.30;58.73;;;;;;;;;;4337248;33;20308;-55
2022/02/15 07:22:35;;;;;;;96.33;58.60;;;;;;;;;;4323379;33;20342;-55
2022/02/15 07:25:01;;;;;;;98.77;56.50;;;;;;;;;;4323149;33;20211;-54
2022/02/15 07:27:26;;;;;;;102.53;60.30;;;;;;;;;;4329849;33;20265;-55
2022/02/15 07:29:53;;;;;;;105.97;61.47;;;;;;;;;;4328662;33;20318;-57
2022/02/15 07:32:23;;;;;;;104.13;58.17;;;;;;;;;;4324284;33;20261;-56
2022/02/15 07:34:50;;;;;;;86.67;42.37;;;;;;;;;;4324781;33;20556;-56
2022/02/15 07:37:16;;;;;;;61.73;37.23;;;;;;;;;;4324581;33;20227;-55
2022/02/15 07:39:41;;;;;;;70.37;37.47;;;;;;;;;;4375862;32;20347;-56
2022/02/15 07:42:07;;;;;;;87.80;49.33;;;;;;;;;;4326096;33;20259;-56
2022/02/15 07:44:32;;;;;;;67.73;40.00;;;;;;;;;;4326411;33;20294;-55
2022/02/15 07:46:58;;;;;;;72.60;42.10;;;;;;;;;;4387354;32;20246;-56
2022/02/15 07:49:23;;;;;;;69.43;38.27;;;;;;;;;;4340474;33;20286;-55
2022/02/15 07:51:50;;;;;;;64.40;38.57;;;;;;;;;;4340559;33;20269;-55
2022/02/15 07:54:16;;;;;;;99.10;53.70;;;;;;;;;;4340707;33;20241;-56
2022/02/15 07:56:41;;;;;;;89.17;49.97;;;;;;;;;;4340268;33;20227;-57
2022/02/15 07:59:07;;;;;;;116.57;60.43;;;;;;;;;;4392563;32;20288;-56
2022/02/15 08:01:32;;;;;;;119.87;59.50;;;;;;;;;;4402336;32;20348;-57
2022/02/15 08:03:58;;;;;;;123.80;69.03;;;;;;;;;;4377569;32;20363;-55
2022/02/15 08:06:23;;;;;;;100.83;58.03;;;;;;;;;;4340416;33;20343;-55
2022/02/15 08:08:49;;;;;;;112.80;57.13;;;;;;;;;;4340600;33;20282;-55
2022/02/15 08:11:14;;;;;;;133.43;65.13;;;;;;;;;;4340651;33;20256;-55
2022/02/15 08:13:40;;;;;;;130.27;67.20;;;;;;;;;;4340734;32;20378;-54
2022/02/15 08:16:05;;;;;;;147.90;79.60;;;;;;;;;;4340339;33;20317;-55
2022/02/15 08:18:31;;;;;;;115.63;63.30;;;;;;;;;;4340554;32;20262;-55
2022/02/15 08:20:56;;;;;;;112.07;60.37;;;;;;;;;;4383113;32;20293;-54
2022/02/15 08:23:22;;;;;;;85.77;46.60;;;;;;;;;;4325642;33;20329;-55
2022/02/15 08:25:50;;;;;;;107.20;60.97;;;;;;;;;;4336075;33;20206;-56
2022/02/15 08:28:17;;;;;;;80.73;44.30;;;;;;;;;;4339920;32;20566;-55
2022/02/15 08:30:43;;;;;;;70.67;41.03;;;;;;;;;;4337099;33;20285;-56
2022/02/15 08:33:08;;;;;;;65.00;38.27;;;;;;;;;;4339939;33;20673;-55
2022/02/15 08:35:34;;;;;;;60.07;35.53;;;;;;;;;;4339620;33;20348;-56
2022/02/15 08:37:59;;;;;;;51.43;34.00;;;;;;;;;;4340016;32;20265;-55
2022/02/15 08:40:25;;;;;;;57.03;33.30;;;;;;;;;;4339175;32;20310;-56
2022/02/15 08:42:51;;;;;;;49.07;31.30;;;;;;;;;;4339240;32;20578;-55
2022/02/15 08:45:16;;;;;;;45.57;27.83;;;;;;;;;;4339542;32;20297;-57
2022/02/15 08:47:42;;;;;;;52.07;31.10;;;;;;;;;;4339150;32;20222;-55
2022/02/15 08:50:08;;;;;;;50.33;31.73;;;;;;;;;;4339632;32;20278;-57
2022/02/15 08:52:38;;;;;;;45.73;29.03;;;;;;;;;;4339578;32;20682;-55
2022/02/15 08:55:04;;;;;;;54.10;31.10;;;;;;;;;;4339599;32;20586;-55
2022/02/15 08:57:30;;;;;;;44.73;29.67;;;;;;;;;;4339590;32;20296;-56
2022/02/15 08:59:56;;;;;;;56.00;34.13;;;;;;;;;;4339288;32;20699;-56
2022/02/15 09:02:23;;;;;;;59.07;33.07;;;;;;;;;;4339179;33;20265;-55
2022/02/15 09:04:49;;;;;;;54.67;33.83;;;;;;;;;;4374684;32;20683;-56
2022/02/15 09:07:14;;;;;;;64.60;35.73;;;;;;;;;;4390104;32;20313;-56
2022/02/15 09:09:40;;;;;;;94.00;64.97;;;;;;;;;;4339300;32;20266;-55
2022/02/15 09:12:06;;;;;;;53.97;33.97;;;;;;;;;;4339553;32;20288;-57
2022/02/15 09:14:31;;;;;;;50.90;29.53;;;;;;;;;;4339360;33;20314;-56
2022/02/15 09:17:00;;;;;;;55.33;32.47;;;;;;;;;;4338984;32;20277;-56
2022/02/15 09:19:27;;;;;;;66.43;36.90;;;;;;;;;;4339397;33;20652;-55
2022/02/15 09:21:52;;;;;;;51.07;32.20;;;;;;;;;;4385872;32;20356;-58
2022/02/15 09:24:19;;;;;;;53.80;31.97;;;;;;;;;;4389733;32;20302;-57
2022/02/15 09:26:44;;;;;;;53.97;31.97;;;;;;;;;;4339354;32;20273;-56
2022/02/15 09:29:10;;;;;;;53.17;35.00;;;;;;;;;;4339355;32;20363;-56
2022/02/15 09:31:39;;;;;;;48.43;29.97;;;;;;;;;;4339056;33;20255;-56
2022/02/15 09:34:05;;;;;;;46.37;26.47;;;;;;;;;;4337932;32;20277;-56
2022/02/15 09:36:31;;;;;;;40.37;25.03;;;;;;;;;;4337793;33;20748;-56
2022/02/15 09:38:57;;;;;;;51.67;27.47;;;;;;;;;;4339159;33;20286;-56
2022/02/15 09:41:22;;;;;;;44.90;25.20;;;;;;;;;;4339106;32;20660;-56
2022/02/15 09:43:48;;;;;;;40.43;22.73;;;;;;;;;;4339672;32;20278;-57
2022/02/15 09:46:15;;;;;;;46.87;28.60;;;;;;;;;;4370793;32;20235;-56
2022/02/15 09:48:42;;;;;;;38.90;20.97;;;;;;;;;;4335254;33;20376;-57
2022/02/15 09:51:09;;;;;;;32.83;19.80;;;;;;;;;;4339204;33;20269;-54
2022/02/15 09:53:36;;;;;;;32.43;18.57;;;;;;;;;;4338871;32;20202;-56
2022/02/15 09:56:03;;;;;;;26.53;16.57;;;;;;;;;;4339200;32;20272;-56
2022/02/15 09:58:28;;;;;;;30.30;16.20;;;;;;;;;;4339287;32;20217;-55
2022/02/15 10:00:54;;;;;;;23.43;15.63;;;;;;;;;;4338980;33;20400;-54
2022/02/15 10:03:20;;;;;;;26.73;17.67;;;;;;;;;;4339079;33;20879;-54
2022/02/15 10:05:50;;;;;;;31.53;17.17;;;;;;;;;;4338972;33;20298;-55
2022/02/15 10:08:31;;;;;;;26.10;16.67;;;;;;;;;;4389481;32;20738;-55
2022/02/15 10:11:10;;;;;;;33.27;19.03;;;;;;;;;;4339150;32;20317;-55
2022/02/15 10:13:46;;;;;;;35.87;19.13;;;;;;;;;;4338095;32;20219;-54
2022/02/15 10:16:13;;;;;;;26.03;16.70;;;;;;;;;;4338249;32;20250;-54
2022/02/15 10:18:39;;;;;;;20.67;14.40;;;;;;;;;;4337907;33;20325;-55
2022/02/15 10:21:05;;;;;;;26.53;16.60;;;;;;;;;;4329822;32;20321;-55
2022/02/15 10:23:34;;;;;;;28.43;16.97;;;;;;;;;;4324030;33;20204;-56
2022/02/15 10:26:00;;;;;;;23.17;15.67;;;;;;;;;;4324189;33;20267;-53
2022/02/15 10:28:33;;;;;;;26.97;18.17;;;;;;;;;;4325116;33;20317;-54
2022/02/15 10:31:03;;;;;;;25.23;17.07;;;;;;;;;;4338029;32;20420;-54
2022/02/15 10:33:43;;;;;;;35.53;18.53;;;;;;;;;;4337918;33;20502;-55
2022/02/15 10:36:12;;;;;;;51.50;22.53;;;;;;;;;;4338398;33;20206;-54
2022/02/15 10:38:40;;;;;;;33.83;19.43;;;;;;;;;;4338633;33;20246;-55
2022/02/15 10:41:17;;;;;;;27.47;18.20;;;;;;;;;;4338619;33;20269;-56
2022/02/15 10:43:49;;;;;;;25.63;15.97;;;;;;;;;;4389234;32;20234;-54
2022/02/15 10:46:18;;;;;;;73.73;30.57;;;;;;;;;;4338460;33;20238;-54
2022/02/15 10:48:45;;;;;;;74.73;37.97;;;;;;;;;;4332489;33;20321;-54
2022/02/15 10:51:12;;;;;;;29.90;17.37;;;;;;;;;;4338314;32;20266;-55
2022/02/15 10:53:38;;;;;;;63.47;31.77;;;;;;;;;;4338651;32;20246;-54
2022/02/15 10:56:04;;;;;;;35.60;19.73;;;;;;;;;;4389211;32;20382;-55
2022/02/15 10:58:31;;;;;;;21.87;14.00;;;;;;;;;;4342287;32;20697;-56
2022/02/15 11:00:59;;;;;;;28.23;15.97;;;;;;;;;;4400110;32;20606;-56
2022/02/15 11:03:30;;;;;;;28.40;17.47;;;;;;;;;;4389628;32;20393;-55
2022/02/15 11:05:55;;;;;;;30.73;16.67;;;;;;;;;;4340754;33;20198;-55
2022/02/15 11:08:22;;;;;;;45.33;22.67;;;;;;;;;;4341116;32;20207;-56
2022/02/15 11:11:13;;;;;;;40.10;23.13;;;;;;;;;;4341301;33;20683;-56
2022/02/15 11:13:40;;;;;;;45.90;24.93;;;;;;;;;;4340989;32;20368;-56
2022/02/15 11:16:17;;;;;;;41.43;18.93;;;;;;;;;;4340920;33;20210;-56
2022/02/15 11:18:46;;;;;;;42.37;21.67;;;;;;;;;;4340882;32;20671;-56
2022/02/15 11:21:23;;;;;;;46.83;21.17;;;;;;;;;;4391902;32;20659;-56
2022/02/15 11:24:06;;;;;;;50.03;24.80;;;;;;;;;;4341203;33;20203;-57
2022/02/15 11:26:35;;;;;;;77.53;39.47;;;;;;;;;;4341310;32;20280;-56
2022/02/15 11:29:01;;;;;;;40.63;24.30;;;;;;;;;;4340537;33;20239;-55
2022/02/15 11:31:33;;;;;;;29.00;18.90;;;;;;;;;;4340811;33;20287;-56
2022/02/15 11:34:09;;;;;;;27.90;15.47;;;;;;;;;;4339690;33;20243;-55
2022/02/15 11:36:52;;;;;;;26.90;17.23;;;;;;;;;;4339237;33;20615;-56
2022/02/15 11:39:23;;;;;;;30.93;17.33;;;;;;;;;;4339120;33;20674;-56
2022/02/15 11:41:54;;;;;;;52.93;25.07;;;;;;;;;;4338775;32;20297;-55
2022/02/15 11:44:29;;;;;;;31.40;18.07;;;;;;;;;;4339303;33;20203;-55
2022/02/15 11:46:55;;;;;;;28.03;17.10;;;;;;;;;;4338325;33;20301;-56
2022/02/15 11:49:23;;;;;;;45.40;22.67;;;;;;;;;;4333554;33;20356;-55
2022/02/15 11:51:49;;;;;;;30.70;17.07;;;;;;;;;;4340825;32;20223;-55
2022/02/15 11:54:21;;;;;;;28.83;17.57;;;;;;;;;;4340826;33;20699;-55
2022/02/15 11:56:49;;;;;;;49.97;26.23;;;;;;;;;;4339661;33;20648;-54
2022/02/15 11:59:17;;;;;;;26.43;16.27;;;;;;;;;;4338506;33;20350;-55
2022/02/15 12:01:53;;;;;;;28.10;13.80;;;;;;;;;;4338497;33;20757;-55
2022/02/15 12:04:19;;;;;;;22.03;12.97;;;;;;;;;;4336080;33;20684;-55
2022/02/15 12:06:47;;;;;;;19.37;13.10;;;;;;;;;;4338486;32;20226;-56
2022/02/15 12:09:14;;;;;;;22.57;13.23;;;;;;;;;;4389645;32;20672;-55
2022/02/15 12:11:42;;;;;;;22.10;12.60;;;;;;;;;;4339002;32;20615;-56
2022/02/15 12:14:08;;;;;;;19.93;13.33;;;;;;;;;;4340991;33;20237;-55
2022/02/15 12:16:54;;;;;;;24.67;12.03;;;;;;;;;;4374758;32;20227;-56
2022/02/15 12:19:37;;;;;;;18.43;12.40;;;;;;;;;;4333562;33;20218;-55
2022/02/15 12:22:14;;;;;;;15.70;9.70;;;;;;;;;;4339988;33;20253;-55
2022/02/15 12:24:40;;;;;;;21.90;9.43;;;;;;;;;;4340678;33;20202;-56
2022/02/15 12:27:08;;;;;;;16.50;9.97;;;;;;;;;;4340863;32;20272;-55
2022/02/15 12:29:35;;;;;;;17.87;9.70;;;;;;;;;;4340836;32;20302;-56
2022/02/15 12:32:06;;;;;;;22.20;9.83;;;;;;;;;;4340437;32;20288;-56
2022/02/15 12:34:32;;;;;;;15.63;10.07;;;;;;;;;;4340423;32;20275;-55
2022/02/15 12:36:58;;;;;;;17.83;7.80;;;;;;;;;;4340386;33;20305;-55
2022/02/15 12:39:35;;;;;;;9.77;7.23;;;;;;;;;;4390795;32;20347;-55
2022/02/15 12:42:15;;;;;;;28.83;13.37;;;;;;;;;;4340223;32;20234;-54
2022/02/15 12:44:42;;;;;;;30.50;15.03;;;;;;;;;;4340241;33;20624;-54
2022/02/15 12:47:08;;;;;;;33.97;15.67;;;;;;;;;;4387667;32;20246;-55
2022/02/15 12:49:34;;;;;;;25.73;12.00;;;;;;;;;;4333755;33;20408;-53
2022/02/15 12:52:00;;;;;;;14.17;8.87;;;;;;;;;;4339833;33;20678;-54
2022/02/15 12:54:25;;;;;;;20.87;8.47;;;;;;;;;;4390914;32;20707;-56
2022/02/15 12:56:51;;;;;;;12.90;7.07;;;;;;;;;;4340029;33;20271;-54
2022/02/15 12:59:21;;;;;;;7.90;5.83;;;;;;;;;;4339763;33;20286;-55
2022/02/15 13:01:55;;;;;;;9.00;6.93;;;;;;;;;;4339534;32;20263;-54
2022/02/15 13:04:21;;;;;;;15.07;7.63;;;;;;;;;;4374471;32;20256;-53
2022/02/15 14:00:39;;;;;;;10.10;5.63;;;;;;;;;;4339197;32;20369;-55
2022/02/15 14:03:04;;;;;;;15.50;7.20;;;;;;;;;;4339150;32;20369;-56
2022/02/15 14:05:30;;;;;;;17.73;7.63;;;;;;;;;;4339065;32;20269;-55
2022/02/15 14:07:55;;;;;;;17.43;8.67;;;;;;;;;;4339514;32;20281;-56
2022/02/15 14:10:21;;;;;;;20.80;9.90;;;;;;;;;;4339258;32;20332;-55
2022/02/15 14:12:47;;;;;;;23.50;8.10;;;;;;;;;;4339123;32;20235;-55
2022/02/15 14:15:15;;;;;;;16.00;8.40;;;;;;;;;;4389565;32;20333;-55
2022/02/15 14:17:42;;;;;;;10.57;7.03;;;;;;;;;;4339272;32;20258;-55
2022/02/15 14:20:13;;;;;;;12.13;7.60;;;;;;;;;;4351190;32;20230;-55
2022/02/15 14:22:40;;;;;;;17.33;8.93;;;;;;;;;;4326312;33;20846;-55
2022/02/15 14:25:07;;;;;;;16.60;9.63;;;;;;;;;;4339185;32;20331;-55
2022/02/15 14:27:33;;;;;;;24.70;9.03;;;;;;;;;;4338942;32;20312;-55
2022/02/15 14:29:58;;;;;;;15.93;7.87;;;;;;;;;;4338923;33;20274;-55
2022/02/15 14:32:24;;;;;;;11.77;8.47;;;;;;;;;;4389576;32;20600;-56
2022/02/15 14:34:50;;;;;;;19.57;9.57;;;;;;;;;;4389299;32;20860;-56
2022/02/15 14:37:15;;;;;;;34.23;12.33;;;;;;;;;;4376001;32;20293;-54
2022/02/15 14:39:41;;;;;;;24.27;12.40;;;;;;;;;;4330218;32;20321;-55
2022/02/15 14:42:09;;;;;;;33.80;10.90;;;;;;;;;;4339209;33;20326;-54
2022/02/15 14:44:35;;;;;;;13.97;9.37;;;;;;;;;;4338997;32;20274;-54
2022/02/15 14:47:05;;;;;;;38.43;19.30;;;;;;;;;;4339028;33;20294;-54
2022/02/15 14:49:32;;;;;;;28.17;12.80;;;;;;;;;;4389875;32;20344;-54
2022/02/15 14:51:59;;;;;;;21.70;10.37;;;;;;;;;;4390262;32;20263;-54
2022/02/15 14:54:26;;;;;;;15.40;9.83;;;;;;;;;;4339286;32;20567;-55
2022/02/15 14:56:51;;;;;;;15.40;7.63;;;;;;;;;;4339637;32;20304;-54
2022/02/15 14:59:17;;;;;;;18.03;6.80;;;;;;;;;;4339497;33;20325;-55
2022/02/15 15:01:42;;;;;;;28.33;12.03;;;;;;;;;;4340069;32;20368;-54
2022/02/15 15:04:08;;;;;;;27.73;9.90;;;;;;;;;;4341399;32;20321;-54
2022/02/15 15:06:38;;;;;;;11.37;6.50;;;;;;;;;;4339793;33;20238;-54
2022/02/15 15:09:03;;;;;;;17.50;6.40;;;;;;;;;;4341339;33;20630;-53
2022/02/15 15:11:29;;;;;;;38.90;9.17;;;;;;;;;;4341004;32;20302;-54
2022/02/15 15:13:54;;;;;;;22.87;10.17;;;;;;;;;;4341077;32;20780;-54